createdAt,value
2019-03-25T00:01:41.278Z,8.80
2019-03-25T00:04:10.681Z,8.80
2019-03-25T00:06:40.544Z,8.80
2019-03-25T00:09:10.335Z,8.90
2019-03-25T00:11:40.067Z,8.90
2019-03-25T00:14:09.710Z,9.00
2019-03-25T00:16:39.289Z,9.00
2019-03-25T00:19:08.799Z,9.10
2019-03-25T00:21:38.245Z,9.10
2019-03-25T00:24:07.630Z,9.10
2019-03-25T00:26:36.999Z,9.10
2019-03-25T00:29:06.597Z,9.10
2019-03-25T00:31:36.020Z,9.10
2019-03-25T00:34:05.514Z,9.10
2019-03-25T00:36:34.993Z,9.20
2019-03-25T00:39:06.961Z,9.20
2019-03-25T00:41:36.655Z,9.20
2019-03-25T00:44:06.020Z,9.30
2019-03-25T00:46:35.424Z,9.30
2019-03-25T00:49:04.862Z,9.30
2019-03-25T00:51:34.431Z,9.40
2019-03-25T00:54:04.010Z,9.40
2019-03-25T00:56:33.385Z,9.40
2019-03-25T00:59:02.916Z,9.40
2019-03-25T01:01:32.446Z,9.40
2019-03-25T01:04:02.010Z,9.40
2019-03-25T01:06:31.722Z,9.40
2019-03-25T01:09:01.129Z,9.30
2019-03-25T01:11:30.608Z,9.30
2019-03-25T01:14:00.249Z,9.30
2019-03-25T01:16:29.698Z,9.30
2019-03-25T01:18:59.028Z,9.30
2019-03-25T01:21:28.697Z,9.40
2019-03-25T01:23:58.382Z,9.30
2019-03-25T01:26:27.747Z,9.30
2019-03-25T01:28:57.125Z,9.40
2019-03-25T01:31:26.502Z,9.30
2019-03-25T01:33:55.966Z,9.30
2019-03-25T01:36:25.603Z,9.30
2019-03-25T01:38:55.318Z,9.40
2019-03-25T01:41:24.993Z,9.50
2019-03-25T01:43:54.746Z,9.50
2019-03-25T01:46:24.291Z,9.50
2019-03-25T01:48:54.058Z,9.50
2019-03-25T01:51:24.452Z,9.40
2019-03-25T01:53:54.201Z,9.40
2019-03-25T01:56:23.690Z,9.40
2019-03-25T01:58:53.010Z,9.40
2019-03-25T02:01:22.376Z,9.40
2019-03-25T02:03:51.794Z,9.40
2019-03-25T02:06:21.160Z,9.40
2019-03-25T02:08:50.854Z,9.30
2019-03-25T02:11:22.224Z,9.30
2019-03-25T02:13:51.569Z,9.20
2019-03-25T02:16:20.938Z,9.20
2019-03-25T02:18:50.274Z,9.20
2019-03-25T02:21:20.206Z,9.10
2019-03-25T02:23:49.697Z,9.10
2019-03-25T02:26:19.759Z,9.00
2019-03-25T02:28:49.193Z,9.00
2019-03-25T02:31:18.622Z,9.00
2019-03-25T02:33:47.997Z,9.00
2019-03-25T02:36:17.372Z,8.90
2019-03-25T02:38:46.725Z,9.00
2019-03-25T02:41:18.619Z,9.00
2019-03-25T02:43:47.146Z,8.90
2019-03-25T02:46:16.494Z,8.80
2019-03-25T02:48:46.154Z,8.80
2019-03-25T02:51:15.585Z,8.80
2019-03-25T02:53:44.929Z,8.80
2019-03-25T02:56:14.364Z,8.80
2019-03-25T02:58:43.771Z,8.70
2019-03-25T03:01:14.986Z,8.70
2019-03-25T03:03:44.313Z,8.70
2019-03-25T03:06:14.002Z,8.60
2019-03-25T03:08:47.230Z,8.60
2019-03-25T03:11:14.550Z,8.60
2019-03-25T03:13:43.896Z,8.60
2019-03-25T03:16:13.351Z,8.60
2019-03-25T03:18:42.736Z,8.50
2019-03-25T03:21:12.082Z,8.60
2019-03-25T03:23:42.576Z,8.60
2019-03-25T03:26:12.049Z,8.60
2019-03-25T03:28:41.453Z,8.60
2019-03-25T03:31:10.828Z,8.60
2019-03-25T03:33:40.307Z,8.60
2019-03-25T03:36:09.641Z,8.60
2019-03-25T03:38:38.992Z,8.70
2019-03-25T03:41:08.529Z,8.70
2019-03-25T03:43:37.954Z,8.70
2019-03-25T03:46:07.349Z,8.60
2019-03-25T03:48:36.706Z,8.60
2019-03-25T03:51:06.232Z,8.60
2019-03-25T03:53:36.042Z,8.60
2019-03-25T03:56:13.076Z,8.50
2019-03-25T03:58:36.897Z,8.50
2019-03-25T04:01:06.421Z,8.50
2019-03-25T04:03:35.907Z,8.50
2019-03-25T04:06:05.410Z,8.40
2019-03-25T04:08:34.815Z,8.50
2019-03-25T04:11:04.314Z,8.40
2019-03-25T04:13:33.767Z,8.40
2019-03-25T04:16:03.436Z,8.40
2019-03-25T04:18:32.779Z,8.30
2019-03-25T04:21:02.113Z,8.30
2019-03-25T04:23:32.280Z,8.30
2019-03-25T04:26:01.890Z,8.30
2019-03-25T04:28:31.241Z,8.30
2019-03-25T04:31:00.613Z,8.30
2019-03-25T04:33:30.068Z,8.30
2019-03-25T04:35:59.529Z,8.30
2019-03-25T04:38:28.907Z,8.20
2019-03-25T04:40:58.716Z,8.20
2019-03-25T04:43:28.082Z,8.20
2019-03-25T04:45:57.501Z,8.20
2019-03-25T04:48:27.906Z,8.20
2019-03-25T04:50:57.289Z,8.10
2019-03-25T04:53:26.653Z,8.10
2019-03-25T04:55:55.985Z,8.00
2019-03-25T04:58:25.319Z,8.00
2019-03-25T05:00:54.637Z,7.90
2019-03-25T05:03:23.993Z,7.90
2019-03-25T05:05:53.563Z,7.80
2019-03-25T05:08:22.903Z,7.80
2019-03-25T05:10:52.617Z,7.80
2019-03-25T05:13:21.933Z,7.70
2019-03-25T05:15:51.524Z,7.70
2019-03-25T05:18:20.837Z,7.60
2019-03-25T05:20:50.153Z,7.50
2019-03-25T05:23:19.501Z,7.40
2019-03-25T05:25:49.207Z,7.30
2019-03-25T05:28:18.553Z,7.30
2019-03-25T05:30:47.899Z,7.30
2019-03-25T05:33:17.226Z,7.20
2019-03-25T05:35:46.914Z,7.10
2019-03-25T05:38:16.465Z,7.10
2019-03-25T05:40:46.052Z,7.10
2019-03-25T05:43:15.461Z,7.00
2019-03-25T05:45:44.826Z,7.10
2019-03-25T05:48:14.249Z,7.10
2019-03-25T05:50:44.281Z,7.00
2019-03-25T05:53:13.933Z,7.00
2019-03-25T05:55:43.353Z,7.00
2019-03-25T05:58:12.691Z,7.10
2019-03-25T06:00:42.202Z,7.10
2019-03-25T06:03:11.777Z,7.10
2019-03-25T06:05:41.592Z,7.20
2019-03-25T06:08:11.201Z,7.10
2019-03-25T06:10:40.540Z,7.20
2019-03-25T06:13:09.900Z,7.40
2019-03-25T06:15:39.257Z,7.70
2019-03-25T06:18:08.616Z,8.10
2019-03-25T06:20:37.953Z,8.50
2019-03-25T06:23:07.389Z,8.20
2019-03-25T06:25:36.713Z,8.30
2019-03-25T06:28:06.738Z,8.50
2019-03-25T06:30:36.082Z,8.80
2019-03-25T06:33:12.371Z,8.90
2019-03-25T06:35:36.513Z,8.90
2019-03-25T06:38:05.829Z,8.80
2019-03-25T06:40:35.929Z,8.70
2019-03-25T06:43:05.941Z,8.90
2019-03-25T06:45:35.620Z,9.10
2019-03-25T06:48:05.088Z,9.20
2019-03-25T06:50:34.502Z,9.00
2019-03-25T06:53:04.165Z,9.00
2019-03-25T06:55:34.016Z,9.10
2019-03-25T06:58:03.792Z,9.40
2019-03-25T07:00:33.157Z,9.40
2019-03-25T07:03:02.508Z,9.30
2019-03-25T07:05:31.884Z,9.40
2019-03-25T07:08:02.744Z,9.80
2019-03-25T07:10:40.929Z,10.40
2019-03-25T07:13:12.761Z,11.00
2019-03-25T07:15:44.350Z,11.40
2019-03-25T07:18:15.066Z,11.50
2019-03-25T07:20:56.720Z,11.50
2019-03-25T07:23:27.296Z,11.50
2019-03-25T07:26:00.180Z,11.60
2019-03-25T07:28:38.845Z,11.70
2019-03-25T07:31:11.226Z,11.90
2019-03-25T07:33:41.439Z,12.30
2019-03-25T07:36:14.004Z,11.90
2019-03-25T07:38:44.344Z,11.40
2019-03-25T07:41:16.995Z,11.10
2019-03-25T07:43:46.348Z,10.60
2019-03-25T07:49:48.463Z,9.90
2019-03-25T07:52:17.787Z,9.70
2019-03-25T07:54:47.101Z,9.70
2019-03-25T07:57:16.710Z,9.70
2019-03-25T07:59:46.099Z,9.40
2019-03-25T08:02:15.764Z,9.20
2019-03-25T08:04:45.277Z,9.00
2019-03-25T08:07:14.746Z,9.00
2019-03-25T08:09:44.069Z,8.90
2019-03-25T08:12:13.390Z,8.80
2019-03-25T08:14:42.961Z,8.90
2019-03-25T08:17:12.374Z,9.10
2019-03-25T08:19:41.772Z,9.10
2019-03-25T08:22:11.892Z,9.20
2019-03-25T08:24:41.238Z,9.10
2019-03-25T08:27:10.560Z,9.10
2019-03-25T08:29:40.149Z,9.00
2019-03-25T08:32:09.486Z,8.90
2019-03-25T08:34:38.798Z,8.90
2019-03-25T08:37:08.208Z,9.00
2019-03-25T08:39:37.609Z,9.10
2019-03-25T08:42:07.089Z,9.20
2019-03-25T08:44:36.403Z,9.30
2019-03-25T08:47:06.061Z,9.20
2019-03-25T08:49:35.492Z,9.10
2019-03-25T08:52:04.985Z,9.20
2019-03-25T08:54:34.592Z,9.30
2019-03-25T08:57:04.403Z,9.30
2019-03-25T08:59:33.865Z,9.10
2019-03-25T09:02:03.491Z,8.90
2019-03-25T09:04:32.921Z,8.80
2019-03-25T09:07:02.261Z,8.80
2019-03-25T09:09:31.596Z,8.80
2019-03-25T09:12:01.309Z,8.80
2019-03-25T09:14:30.980Z,8.80
2019-03-25T09:17:00.763Z,8.80
2019-03-25T09:19:30.620Z,8.80
2019-03-25T09:22:00.165Z,8.90
2019-03-25T09:24:29.591Z,8.80
2019-03-25T09:26:59.057Z,8.90
2019-03-25T09:29:29.177Z,8.90
2019-03-25T09:31:58.577Z,8.90
2019-03-25T09:34:28.135Z,8.80
2019-03-25T09:36:57.498Z,8.80
2019-03-25T09:39:26.833Z,8.70
2019-03-25T09:41:56.149Z,8.60
2019-03-25T09:44:25.834Z,8.50
2019-03-25T09:46:55.149Z,8.40
2019-03-25T09:49:24.542Z,8.20
2019-03-25T09:51:54.018Z,8.20
2019-03-25T09:54:23.434Z,8.20
2019-03-25T09:56:52.861Z,8.20
2019-03-25T09:59:22.257Z,8.20
2019-03-25T10:01:51.654Z,8.20
2019-03-25T10:04:21.377Z,8.20
2019-03-25T10:06:50.871Z,8.10
2019-03-25T10:09:20.275Z,8.10
2019-03-25T10:11:49.628Z,8.00
2019-03-25T10:14:18.962Z,8.00
2019-03-25T10:16:48.372Z,7.90
2019-03-25T10:19:17.685Z,7.80
2019-03-25T10:21:47.100Z,7.90
2019-03-25T10:24:16.796Z,7.90
2019-03-25T10:26:46.670Z,7.90
2019-03-25T10:29:16.006Z,8.00
2019-03-25T10:31:45.327Z,7.90
2019-03-25T10:34:14.761Z,7.90
2019-03-25T10:36:44.395Z,7.90
2019-03-25T10:39:13.777Z,7.90
2019-03-25T10:41:43.450Z,7.90
2019-03-25T10:44:12.773Z,7.90
2019-03-25T10:46:42.125Z,7.70
2019-03-25T10:49:11.477Z,7.60
2019-03-25T10:51:40.880Z,7.60
2019-03-25T10:54:10.520Z,7.50
2019-03-25T10:56:48.847Z,7.50
2019-03-25T10:59:11.293Z,7.50
2019-03-25T11:01:40.628Z,7.50
2019-03-25T11:04:10.212Z,7.60
2019-03-25T11:06:39.865Z,7.60
2019-03-25T11:09:09.539Z,7.70
2019-03-25T11:11:39.476Z,7.70
2019-03-25T11:14:08.829Z,7.80
2019-03-25T11:16:38.519Z,7.90
2019-03-25T11:19:08.045Z,7.90
2019-03-25T11:21:37.358Z,8.00
2019-03-25T11:24:06.904Z,8.10
2019-03-25T11:26:36.421Z,8.20
2019-03-25T11:29:08.542Z,8.30
2019-03-25T11:31:36.978Z,8.50
2019-03-25T11:34:06.457Z,8.60
2019-03-25T11:36:36.142Z,8.60
2019-03-25T11:39:07.462Z,8.50
2019-03-25T11:41:36.954Z,8.50
2019-03-25T11:44:06.436Z,8.50
2019-03-25T11:46:35.837Z,8.60
2019-03-25T11:49:05.336Z,8.60
2019-03-25T11:51:34.697Z,8.60
2019-03-25T11:54:04.148Z,8.60
2019-03-25T11:56:33.605Z,8.70
2019-03-25T11:59:03.201Z,8.90
2019-03-25T12:01:32.883Z,9.00
2019-03-25T12:04:02.225Z,9.30
2019-03-25T12:06:31.568Z,9.60
2019-03-25T12:09:00.952Z,9.80
2019-03-25T12:11:30.352Z,9.60
2019-03-25T12:13:59.983Z,9.60
2019-03-25T12:16:31.393Z,9.40
2019-03-25T12:19:00.584Z,9.50
2019-03-25T12:21:30.198Z,9.60
2019-03-25T12:23:59.614Z,9.60
2019-03-25T12:26:32.317Z,9.60
2019-03-25T12:29:01.661Z,9.80
2019-03-25T12:31:31.086Z,10.20
2019-03-25T12:34:00.406Z,10.60
2019-03-25T12:36:29.781Z,10.80
2019-03-25T12:38:59.186Z,11.00
2019-03-25T12:41:28.508Z,10.90
2019-03-25T12:43:57.925Z,10.70
2019-03-25T12:46:27.517Z,10.80
2019-03-25T12:48:56.937Z,11.30
2019-03-25T12:51:26.232Z,11.60
2019-03-25T12:53:55.996Z,11.80
2019-03-25T12:56:25.379Z,11.90
2019-03-25T12:58:54.751Z,12.10
2019-03-25T13:01:24.149Z,12.30
2019-03-25T13:03:53.496Z,12.20
2019-03-25T13:06:22.952Z,12.60
2019-03-25T13:08:52.300Z,12.90
2019-03-25T13:11:21.688Z,13.20
2019-03-25T13:13:51.055Z,13.00
2019-03-25T13:16:20.449Z,12.60
2019-03-25T13:18:49.785Z,12.10
2019-03-25T13:21:19.268Z,11.50
2019-03-25T13:23:48.629Z,11.10
2019-03-25T13:26:17.998Z,10.70
2019-03-25T13:28:47.356Z,10.60
2019-03-25T13:31:16.719Z,10.80
2019-03-25T13:33:46.177Z,10.80
2019-03-25T13:36:15.544Z,10.90
2019-03-25T13:38:45.459Z,11.20
2019-03-25T13:41:15.168Z,11.60
2019-03-25T13:43:44.517Z,11.90
2019-03-25T13:46:13.856Z,11.90
2019-03-25T13:48:43.329Z,11.90
2019-03-25T13:51:12.679Z,12.10
2019-03-25T13:53:42.146Z,12.30
2019-03-25T13:56:11.498Z,12.20
2019-03-25T13:58:40.792Z,12.30
2019-03-25T14:01:10.151Z,12.30
2019-03-25T14:03:39.708Z,12.20
2019-03-25T14:06:09.028Z,12.30
2019-03-25T14:08:38.428Z,11.90
2019-03-25T14:11:08.677Z,11.50
2019-03-25T14:13:48.464Z,11.60
2019-03-25T14:16:09.131Z,11.90
2019-03-25T14:18:38.454Z,12.20
2019-03-25T14:21:07.787Z,12.40
2019-03-25T14:23:37.122Z,12.40
2019-03-25T14:26:06.759Z,12.40
2019-03-25T14:28:36.063Z,12.40
2019-03-25T14:31:05.456Z,12.40
2019-03-25T14:33:34.769Z,12.40
2019-03-25T14:36:04.241Z,12.40
2019-03-25T14:38:33.572Z,12.10
2019-03-25T14:41:03.573Z,11.80
2019-03-25T14:43:32.906Z,11.70
2019-03-25T14:46:02.325Z,11.60
2019-03-25T14:48:31.636Z,11.50
2019-03-25T14:51:01.187Z,11.00
2019-03-25T14:53:30.566Z,9.50
2019-03-25T14:55:59.878Z,8.60
2019-03-25T14:58:29.192Z,7.70
2019-03-25T15:00:58.502Z,7.00
2019-03-25T15:03:27.819Z,6.80
2019-03-25T15:05:57.111Z,6.60
2019-03-25T15:08:26.672Z,6.70
2019-03-25T15:10:55.970Z,6.80
2019-03-25T15:13:25.361Z,7.00
2019-03-25T15:15:54.935Z,7.30
2019-03-25T15:18:24.253Z,7.50
2019-03-25T15:20:53.567Z,7.50
2019-03-25T15:23:23.044Z,7.40
2019-03-25T15:25:52.586Z,7.40
2019-03-25T15:28:21.892Z,7.30
2019-03-25T15:30:51.183Z,7.30
2019-03-25T15:33:20.738Z,7.30
2019-03-25T15:35:50.118Z,7.10
2019-03-25T15:38:19.431Z,7.10
2019-03-25T15:40:48.749Z,7.10
2019-03-25T15:43:18.313Z,7.10
2019-03-25T15:45:47.700Z,7.10
2019-03-25T15:48:17.095Z,7.30
2019-03-25T15:50:46.637Z,7.50
2019-03-25T15:53:15.971Z,7.50
2019-03-25T15:55:45.517Z,7.60
2019-03-25T15:58:25.341Z,7.30
2019-03-25T16:00:47.973Z,7.30
2019-03-25T16:03:17.256Z,7.20
2019-03-25T16:05:46.686Z,6.90
2019-03-25T16:08:16.005Z,6.80
2019-03-25T16:10:45.380Z,6.60
2019-03-25T16:13:14.851Z,6.60
2019-03-25T16:15:44.467Z,6.50
2019-03-25T16:18:37.609Z,6.40
2019-03-25T16:21:07.243Z,6.30
2019-03-25T16:23:36.833Z,6.30
2019-03-25T16:26:06.607Z,6.30
2019-03-25T16:28:36.334Z,6.30
2019-03-25T16:31:05.821Z,6.30
2019-03-25T16:33:35.944Z,6.20
2019-03-25T16:36:05.424Z,6.20
2019-03-25T16:38:34.812Z,6.30
2019-03-25T16:41:04.193Z,6.30
2019-03-25T16:43:33.772Z,6.40
2019-03-25T16:46:03.087Z,6.50
2019-03-25T16:48:32.582Z,6.70
2019-03-25T16:51:01.965Z,6.80
2019-03-25T16:53:31.278Z,6.90
2019-03-25T16:56:00.589Z,6.80
2019-03-25T16:58:29.907Z,6.70
2019-03-25T17:01:09.443Z,6.70
2019-03-25T17:03:30.517Z,6.80
2019-03-25T17:05:59.833Z,6.70
2019-03-25T17:08:29.149Z,6.70
2019-03-25T17:10:58.702Z,6.60
2019-03-25T17:13:28.077Z,6.60
2019-03-25T17:15:57.708Z,6.60
2019-03-25T17:18:27.096Z,6.50
2019-03-25T17:20:56.769Z,6.50
2019-03-25T17:23:26.356Z,6.50
2019-03-25T17:25:56.623Z,6.40
2019-03-25T17:28:26.099Z,6.30
2019-03-25T17:30:55.710Z,6.30
2019-03-25T17:33:25.049Z,6.20
2019-03-25T17:35:54.491Z,6.10
2019-03-25T17:38:23.856Z,6.00
2019-03-25T17:40:53.413Z,5.90
2019-03-25T17:43:22.978Z,5.80
2019-03-25T17:45:52.472Z,5.70
2019-03-25T17:48:21.787Z,5.70
2019-03-25T17:50:52.917Z,5.60
2019-03-25T17:53:22.406Z,5.60
2019-03-25T17:55:51.839Z,5.60
2019-03-25T17:58:21.407Z,5.50
2019-03-25T18:01:13.831Z,5.50
2019-03-25T18:03:43.319Z,5.50
2019-03-25T18:06:13.202Z,5.50
2019-03-25T18:08:42.913Z,5.40
2019-03-25T18:11:12.625Z,5.40
2019-03-25T18:13:42.010Z,5.40
2019-03-25T18:16:11.500Z,5.50
2019-03-25T18:18:40.952Z,5.50
2019-03-25T18:21:10.344Z,5.40
2019-03-25T18:23:39.747Z,5.50
2019-03-25T18:26:09.126Z,5.40
2019-03-25T18:28:38.583Z,5.40
2019-03-25T18:31:07.939Z,5.40
2019-03-25T18:33:37.238Z,5.40
2019-03-25T18:36:06.657Z,5.40
2019-03-25T18:38:36.249Z,5.40
2019-03-25T18:41:05.572Z,5.40
2019-03-25T18:43:35.034Z,5.40
2019-03-25T18:46:04.563Z,5.40
2019-03-25T18:48:34.011Z,5.30
2019-03-25T18:51:03.824Z,5.30
2019-03-25T18:53:33.341Z,5.30
2019-03-25T18:56:02.881Z,5.20
2019-03-25T18:58:32.285Z,5.20
2019-03-25T19:01:01.686Z,5.20
2019-03-25T19:03:31.681Z,5.20
2019-03-25T19:06:01.165Z,5.20
2019-03-25T19:08:32.032Z,5.20
2019-03-25T19:11:01.434Z,5.20
2019-03-25T19:13:30.974Z,5.30
2019-03-25T19:16:00.378Z,5.30
2019-03-25T19:18:29.784Z,5.30
2019-03-25T19:20:59.376Z,5.30
2019-03-25T19:23:28.807Z,5.30
2019-03-25T19:25:58.269Z,5.30
2019-03-25T19:28:27.745Z,5.30
2019-03-25T19:30:57.418Z,5.30
2019-03-25T19:33:27.338Z,5.30
2019-03-25T19:35:56.826Z,5.30
2019-03-25T19:38:26.487Z,5.30
2019-03-25T19:40:55.982Z,5.30
2019-03-25T19:43:25.364Z,5.30
2019-03-25T19:45:55.114Z,5.30
2019-03-25T19:48:24.757Z,5.40
2019-03-25T19:50:54.098Z,5.40
2019-03-25T19:53:23.416Z,5.40
2019-03-25T19:55:53.425Z,5.40
2019-03-25T19:58:22.856Z,5.40
2019-03-25T20:00:52.244Z,5.40
2019-03-25T20:03:21.802Z,5.50
2019-03-25T20:05:51.314Z,5.50
2019-03-25T20:08:20.768Z,5.50
2019-03-25T20:10:50.287Z,5.50
2019-03-25T20:13:19.866Z,5.60
2019-03-25T20:15:49.360Z,5.60
2019-03-25T20:18:18.796Z,5.60
2019-03-25T20:20:48.493Z,5.50
2019-03-25T20:23:18.275Z,5.50
2019-03-25T20:25:47.969Z,5.50
2019-03-25T20:28:17.450Z,5.50
2019-03-25T20:30:46.908Z,5.50
2019-03-25T20:33:16.354Z,5.50
2019-03-25T20:35:46.073Z,5.40
2019-03-25T20:38:15.538Z,5.40
2019-03-25T20:40:45.277Z,5.40
2019-03-25T20:43:14.705Z,5.30
2019-03-25T20:45:44.135Z,5.40
2019-03-25T20:48:13.671Z,5.40
2019-03-25T20:50:43.124Z,5.40
2019-03-25T20:53:12.790Z,5.30
2019-03-25T20:55:42.155Z,5.30
2019-03-25T20:58:11.968Z,5.30
2019-03-25T21:00:51.378Z,5.30
2019-03-25T21:03:21.230Z,5.30
2019-03-25T21:05:51.489Z,5.30
2019-03-25T21:08:21.298Z,5.30
2019-03-25T21:10:50.980Z,5.30
2019-03-25T21:13:20.499Z,5.40
2019-03-25T21:15:50.225Z,5.40
2019-03-25T21:18:19.786Z,5.40
2019-03-25T21:20:49.129Z,5.50
2019-03-25T21:23:18.775Z,5.50
2019-03-25T21:25:49.053Z,5.50
2019-03-25T21:28:18.875Z,5.40
2019-03-25T21:30:48.638Z,5.40
2019-03-25T21:33:18.240Z,5.40
2019-03-25T21:35:48.037Z,5.30
2019-03-25T21:38:17.413Z,5.30
2019-03-25T21:40:46.954Z,5.30
2019-03-25T21:43:16.330Z,5.30
2019-03-25T21:45:45.765Z,5.30
2019-03-25T21:48:15.524Z,5.30
2019-03-25T21:50:45.263Z,5.20
2019-03-25T21:53:14.724Z,5.20
2019-03-25T21:55:44.190Z,5.20
2019-03-25T21:58:13.512Z,5.20
2019-03-25T22:00:43.208Z,5.10
2019-03-25T22:03:12.598Z,5.10
2019-03-25T22:05:41.973Z,5.10
2019-03-25T22:08:11.550Z,5.00
2019-03-25T22:10:43.049Z,5.00
2019-03-25T22:13:12.194Z,5.00
2019-03-25T22:15:41.732Z,5.10
2019-03-25T22:18:11.756Z,5.10
2019-03-25T22:20:41.164Z,5.10
2019-03-25T22:23:10.739Z,5.20
2019-03-25T22:25:40.052Z,5.10
2019-03-25T22:28:09.400Z,5.10
2019-03-25T22:30:38.720Z,5.10
2019-03-25T22:33:08.315Z,5.00
2019-03-25T22:35:38.016Z,5.00
2019-03-25T22:38:07.409Z,4.90
2019-03-25T22:40:37.008Z,5.00
2019-03-25T22:43:06.493Z,5.00
2019-03-25T22:45:35.931Z,4.90
2019-03-25T22:48:07.321Z,4.90
2019-03-25T22:50:36.396Z,4.90
2019-03-25T22:53:05.877Z,4.90
2019-03-25T22:55:35.207Z,4.90
2019-03-25T22:58:04.952Z,5.00
2019-03-25T23:00:47.834Z,5.00
2019-03-25T23:03:17.301Z,5.00
2019-03-25T23:05:46.909Z,5.00
2019-03-25T23:08:16.252Z,5.10
2019-03-25T23:10:45.672Z,5.00
2019-03-25T23:13:15.126Z,5.00
2019-03-25T23:15:44.477Z,5.00
2019-03-25T23:18:14.072Z,5.00
2019-03-25T23:20:43.653Z,5.10
2019-03-25T23:23:13.725Z,5.10
2019-03-25T23:25:43.056Z,5.20
2019-03-25T23:28:12.449Z,5.20
2019-03-25T23:30:41.788Z,5.10
2019-03-25T23:33:11.193Z,5.10
2019-03-25T23:35:41.114Z,5.10
2019-03-25T23:38:10.679Z,5.10
2019-03-25T23:40:40.093Z,5.10
2019-03-25T23:43:09.414Z,5.10
2019-03-25T23:45:38.891Z,5.10
2019-03-25T23:48:08.306Z,5.20
2019-03-25T23:50:37.683Z,5.20
2019-03-25T23:53:07.165Z,5.10
2019-03-25T23:55:36.833Z,5.10
2019-03-25T23:58:06.162Z,5.10
